createdAt,value
2018-08-17T00:02:25.985Z,64.28
2018-08-17T00:04:56.597Z,64.33
2018-08-17T00:07:27.127Z,63.57
2018-08-17T00:09:57.744Z,63.09
2018-08-17T00:12:28.203Z,62.97
2018-08-17T00:14:58.764Z,62.75
2018-08-17T00:17:29.347Z,62.45
2018-08-17T00:19:59.848Z,62.10
2018-08-17T00:22:30.289Z,62.07
2018-08-17T00:25:00.765Z,62.37
2018-08-17T00:27:31.229Z,61.85
2018-08-17T00:30:02.223Z,62.14
2018-08-17T00:32:32.658Z,62.42
2018-08-17T00:35:03.542Z,62.58
2018-08-17T00:37:34.166Z,62.47
2018-08-17T00:40:04.631Z,63.15
2018-08-17T00:42:35.136Z,63.05
2018-08-17T00:45:06.960Z,63.88
2018-08-17T00:47:37.542Z,63.95
2018-08-17T00:50:08.144Z,64.37
2018-08-17T00:52:38.652Z,64.14
2018-08-17T00:55:09.170Z,64.77
2018-08-17T00:57:39.642Z,64.22
2018-08-17T01:00:10.176Z,64.19
2018-08-17T01:02:40.676Z,64.49
2018-08-17T01:05:11.138Z,64.54
2018-08-17T01:07:41.826Z,64.59
2018-08-17T01:10:12.651Z,64.68
2018-08-17T01:12:43.386Z,64.62
2018-08-17T01:15:14.160Z,65.09
2018-08-17T01:17:44.707Z,65.53
2018-08-17T01:20:15.820Z,64.87
2018-08-17T01:22:46.202Z,65.08
2018-08-17T01:25:50.904Z,65.92
2018-08-17T01:28:20.841Z,66.51
2018-08-17T01:30:51.472Z,66.53
2018-08-17T01:33:21.344Z,66.58
2018-08-17T01:35:51.217Z,67.08
2018-08-17T01:38:21.754Z,66.83
2018-08-17T01:40:51.624Z,67.28
2018-08-17T01:43:21.691Z,67.65
2018-08-17T01:45:52.759Z,67.42
2018-08-17T01:48:23.188Z,67.40
2018-08-17T01:50:53.777Z,66.72
2018-08-17T01:53:24.210Z,66.42
2018-08-17T01:55:54.588Z,66.60
2018-08-17T01:58:24.414Z,66.46
2018-08-17T02:00:54.298Z,66.54
2018-08-17T02:03:24.164Z,66.92
2018-08-17T02:05:54.070Z,67.16
2018-08-17T02:08:23.959Z,67.13
2018-08-17T02:10:53.894Z,67.37
2018-08-17T02:13:23.780Z,66.50
2018-08-17T02:15:53.901Z,66.95
2018-08-17T02:18:23.795Z,66.83
2018-08-17T02:20:53.728Z,67.32
2018-08-17T02:23:24.139Z,67.48
2018-08-17T02:25:54.708Z,67.10
2018-08-17T02:28:24.714Z,67.15
2018-08-17T02:30:54.638Z,67.29
2018-08-17T02:33:24.669Z,66.94
2018-08-17T02:35:54.615Z,67.05
2018-08-17T02:38:24.622Z,66.68
2018-08-17T02:40:54.926Z,66.90
2018-08-17T02:43:24.866Z,67.39
2018-08-17T02:45:54.755Z,67.35
2018-08-17T02:48:24.590Z,67.70
2018-08-17T02:50:54.436Z,67.92
2018-08-17T02:57:47.738Z,68.68
2018-08-17T03:00:17.852Z,68.31
2018-08-17T03:02:47.738Z,69.38
2018-08-17T03:05:18.644Z,69.34
2018-08-17T03:07:48.859Z,69.92
2018-08-17T03:13:54.519Z,69.87
2018-08-17T03:16:24.329Z,69.90
2018-08-17T03:18:54.237Z,70.29
2018-08-17T03:21:24.144Z,69.92
2018-08-17T03:23:54.055Z,70.05
2018-08-17T03:30:48.062Z,70.33
2018-08-17T03:33:18.187Z,69.79
2018-08-17T03:35:48.161Z,69.96
2018-08-17T03:38:18.102Z,69.57
2018-08-17T03:40:48.094Z,69.16
2018-08-17T03:46:54.029Z,69.80
2018-08-17T03:49:23.861Z,70.39
2018-08-17T03:51:53.862Z,70.35
2018-08-17T03:54:24.036Z,70.24
2018-08-17T03:56:54.087Z,70.89
2018-08-17T03:59:24.067Z,70.90
2018-08-17T04:01:54.039Z,70.72
2018-08-17T04:04:23.915Z,69.68
2018-08-17T04:06:53.839Z,69.51
2018-08-17T04:09:23.709Z,69.96
2018-08-17T04:11:53.629Z,70.03
2018-08-17T04:14:24.259Z,69.47
2018-08-17T04:16:54.197Z,70.05
2018-08-17T04:19:24.063Z,70.17
2018-08-17T04:21:54.083Z,69.53
2018-08-17T04:24:23.948Z,69.97
2018-08-17T04:26:53.896Z,70.28
2018-08-17T04:29:23.895Z,70.64
2018-08-17T04:31:53.848Z,70.08
2018-08-17T04:34:23.937Z,69.55
2018-08-17T04:36:53.851Z,69.98
2018-08-17T04:39:23.805Z,69.58
2018-08-17T04:41:53.985Z,68.99
2018-08-17T04:44:23.901Z,68.83
2018-08-17T04:46:53.877Z,68.68
2018-08-17T04:49:23.874Z,68.27
2018-08-17T04:51:53.926Z,68.60
2018-08-17T04:54:23.824Z,68.19
2018-08-17T04:56:53.680Z,67.62
2018-08-17T04:59:23.863Z,67.71
2018-08-17T05:01:54.389Z,67.30
2018-08-17T05:04:24.620Z,67.28
2018-08-17T05:06:54.534Z,66.64
2018-08-17T05:09:24.557Z,66.13
2018-08-17T05:12:45.657Z,65.80
2018-08-17T05:15:16.102Z,65.41
2018-08-17T05:17:45.952Z,65.98
2018-08-17T05:20:17.606Z,63.74
2018-08-17T05:22:48.650Z,58.99
2018-08-17T05:25:19.330Z,53.34
2018-08-17T05:27:49.776Z,50.08
2018-08-17T05:30:20.241Z,47.00
2018-08-17T05:32:50.790Z,45.95
2018-08-17T05:35:21.314Z,48.51
2018-08-17T05:37:52.002Z,48.55
2018-08-17T05:40:22.464Z,46.83
2018-08-17T05:42:52.958Z,44.23
2018-08-17T05:45:23.502Z,43.57
2018-08-17T05:47:53.798Z,41.31
2018-08-17T05:50:24.237Z,40.08
2018-08-17T05:52:54.258Z,37.75
2018-08-17T05:55:24.295Z,36.13
2018-08-17T05:57:54.431Z,36.43
2018-08-17T06:00:25.429Z,36.15
2018-08-17T06:02:56.261Z,40.39
2018-08-17T06:05:26.555Z,43.76
2018-08-17T06:07:56.879Z,45.03
2018-08-17T06:10:27.734Z,43.67
2018-08-17T06:12:58.071Z,40.39
2018-08-17T06:15:28.502Z,39.16
2018-08-17T06:17:59.150Z,36.85
2018-08-17T06:20:29.870Z,36.64
2018-08-17T06:23:00.976Z,36.19
2018-08-17T06:25:31.467Z,36.10
2018-08-17T06:28:01.863Z,37.59
2018-08-17T06:30:32.284Z,37.29
2018-08-17T06:33:02.728Z,36.58
2018-08-17T06:35:33.192Z,37.37
2018-08-17T06:38:03.935Z,37.50
2018-08-17T06:40:34.672Z,37.05
2018-08-17T06:43:05.336Z,37.03
2018-08-17T06:45:35.979Z,37.06
2018-08-17T06:48:06.490Z,38.58
2018-08-17T06:50:37.248Z,39.71
2018-08-17T06:53:08.300Z,40.34
2018-08-17T06:55:38.739Z,40.49
2018-08-17T06:58:09.506Z,42.34
2018-08-17T07:00:39.990Z,45.28
2018-08-17T07:03:11.125Z,47.42
2018-08-17T07:05:41.548Z,49.00
2018-08-17T07:08:11.962Z,50.69
2018-08-17T07:10:42.352Z,52.63
2018-08-17T07:13:13.074Z,53.84
2018-08-17T07:15:43.508Z,54.42
2018-08-17T07:18:14.314Z,55.13
2018-08-17T07:20:44.742Z,53.91
2018-08-17T07:23:15.272Z,53.88
2018-08-17T07:25:45.997Z,55.06
2018-08-17T07:28:16.544Z,54.27
2018-08-17T07:30:47.524Z,53.45
2018-08-17T07:33:18.236Z,52.64
2018-08-17T07:35:48.684Z,51.45
2018-08-17T07:38:19.173Z,50.60
2018-08-17T07:40:49.609Z,49.42
2018-08-17T07:43:20.169Z,48.31
2018-08-17T07:45:51.002Z,48.88
2018-08-17T07:48:22.077Z,50.14
2018-08-17T07:50:52.607Z,49.16
2018-08-17T07:53:23.355Z,47.71
2018-08-17T07:55:53.716Z,46.54
2018-08-17T07:58:24.327Z,44.74
2018-08-17T08:00:55.170Z,44.28
2018-08-17T08:03:25.931Z,43.16
2018-08-17T08:05:56.747Z,43.04
2018-08-17T08:08:27.525Z,42.44
2018-08-17T08:10:57.929Z,42.14
2018-08-17T08:13:28.497Z,41.98
2018-08-17T08:15:59.239Z,41.03
2018-08-17T08:18:29.963Z,42.06
2018-08-17T08:21:00.387Z,42.15
2018-08-17T08:23:31.319Z,42.18
2018-08-17T08:26:01.825Z,43.73
2018-08-17T08:28:32.424Z,43.29
2018-08-17T08:31:02.973Z,41.64
2018-08-17T08:33:33.425Z,42.26
2018-08-17T08:36:03.864Z,41.83
2018-08-17T08:38:33.991Z,43.25
2018-08-17T08:41:04.384Z,42.34
2018-08-17T08:43:34.586Z,42.64
2018-08-17T08:46:04.661Z,42.86
2018-08-17T08:48:35.029Z,44.40
2018-08-17T08:51:05.525Z,43.21
2018-08-17T08:53:35.833Z,43.83
2018-08-17T08:56:06.128Z,44.46
2018-08-17T08:58:36.830Z,42.82
2018-08-17T09:01:08.241Z,43.76
2018-08-17T09:03:38.361Z,43.48
2018-08-17T09:06:08.591Z,43.73
2018-08-17T09:08:38.995Z,43.67
2018-08-17T09:11:09.579Z,43.38
2018-08-17T09:13:39.720Z,42.22
2018-08-17T09:16:10.101Z,43.42
2018-08-17T09:18:40.519Z,41.81
2018-08-17T09:21:10.583Z,41.23
2018-08-17T09:23:40.636Z,42.23
2018-08-17T09:26:11.102Z,42.35
2018-08-17T09:28:41.293Z,43.23
2018-08-17T09:31:11.959Z,42.67
2018-08-17T09:33:42.135Z,42.57
2018-08-17T09:36:13.077Z,42.81
2018-08-17T09:38:43.211Z,42.50
2018-08-17T09:41:13.354Z,41.03
2018-08-17T09:43:44.235Z,39.61
2018-08-17T09:46:14.511Z,40.79
2018-08-17T09:48:44.638Z,39.42
2018-08-17T09:51:14.958Z,38.95
2018-08-17T09:53:45.986Z,39.54
2018-08-17T09:56:16.204Z,39.40
2018-08-17T09:58:46.362Z,39.32
2018-08-17T10:01:22.133Z,39.42
2018-08-17T10:03:57.537Z,38.84
2018-08-17T10:06:33.159Z,38.07
2018-08-17T10:09:09.880Z,38.67
2018-08-17T10:11:40.078Z,37.98
2018-08-17T10:14:10.262Z,38.20
2018-08-17T10:16:40.822Z,38.57
2018-08-17T10:19:11.018Z,38.68
2018-08-17T10:21:46.299Z,38.11
2018-08-17T10:24:16.692Z,38.18
2018-08-17T10:26:48.054Z,38.36
2018-08-17T10:29:18.576Z,38.16
2018-08-17T10:31:49.006Z,37.13
2018-08-17T10:34:19.461Z,37.62
2018-08-17T10:36:49.794Z,37.44
2018-08-17T10:39:19.902Z,37.36
2018-08-17T10:41:50.921Z,37.38
2018-08-17T10:44:21.081Z,35.62
2018-08-17T10:46:51.221Z,36.04
2018-08-17T10:49:21.547Z,34.17
2018-08-17T10:51:55.684Z,34.52
2018-08-17T10:54:26.836Z,33.61
2018-08-17T10:56:57.399Z,33.44
2018-08-17T10:59:27.526Z,33.32
2018-08-17T11:01:57.624Z,33.18
2018-08-17T11:04:27.795Z,32.46
2018-08-17T11:06:57.939Z,33.46
2018-08-17T11:09:28.081Z,33.53
2018-08-17T11:11:59.014Z,33.09
2018-08-17T11:14:29.143Z,30.76
2018-08-17T11:18:29.066Z,32.52
2018-08-17T11:21:00.238Z,32.87
2018-08-17T11:23:30.464Z,32.49
2018-08-17T11:26:00.592Z,32.71
2018-08-17T11:28:32.442Z,31.16
2018-08-17T11:31:02.830Z,29.31
2018-08-17T11:33:34.104Z,29.47
2018-08-17T11:36:04.268Z,30.39
2018-08-17T11:38:34.568Z,30.46
2018-08-17T11:41:04.750Z,30.62
2018-08-17T11:43:34.992Z,30.30
2018-08-17T11:46:05.582Z,31.30
2018-08-17T11:48:36.588Z,32.64
2018-08-17T11:51:07.739Z,32.52
2018-08-17T11:53:38.015Z,30.96
2018-08-17T11:56:08.954Z,32.05
2018-08-17T11:58:39.424Z,32.05
2018-08-17T12:01:15.224Z,29.42
2018-08-17T12:03:45.384Z,29.35
2018-08-17T12:06:15.850Z,29.74
2018-08-17T12:08:45.939Z,28.48
2018-08-17T12:11:16.043Z,28.29
2018-08-17T12:13:46.128Z,28.59
2018-08-17T12:16:16.217Z,29.01
2018-08-17T12:18:46.412Z,28.19
2018-08-17T12:21:16.738Z,27.66
2018-08-17T12:23:47.118Z,28.29
2018-08-17T12:26:17.773Z,29.00
2018-08-17T12:28:48.056Z,29.70
2018-08-17T12:31:18.153Z,28.94
2018-08-17T12:33:48.496Z,28.38
2018-08-17T12:36:18.780Z,29.18
2018-08-17T12:38:49.305Z,28.52
2018-08-17T12:41:20.409Z,27.53
2018-08-17T12:43:50.580Z,28.59
2018-08-17T12:46:20.760Z,27.48
2018-08-17T12:48:50.981Z,27.82
2018-08-17T12:51:21.169Z,27.91
2018-08-17T12:53:51.311Z,27.79
2018-08-17T12:56:22.427Z,28.15
2018-08-17T12:58:52.596Z,28.65
2018-08-17T13:01:22.798Z,28.50
2018-08-17T13:03:52.965Z,28.10
2018-08-17T13:06:23.162Z,29.49
2018-08-17T13:10:22.348Z,28.96
2018-08-17T13:12:58.079Z,28.22
2018-08-17T13:15:28.468Z,28.17
2018-08-17T13:18:01.106Z,28.59
2018-08-17T13:20:31.337Z,28.28
2018-08-17T13:23:01.591Z,27.65
2018-08-17T13:25:32.176Z,28.32
2018-08-17T13:28:02.273Z,27.88
2018-08-17T13:30:32.387Z,27.99
2018-08-17T13:33:02.607Z,28.11
2018-08-17T13:35:32.727Z,28.37
2018-08-17T13:38:02.901Z,27.79
2018-08-17T13:40:32.957Z,28.07
2018-08-17T13:43:03.242Z,28.92
2018-08-17T13:45:33.603Z,29.44
2018-08-17T13:48:03.809Z,30.12
2018-08-17T13:50:34.024Z,31.29
2018-08-17T13:53:04.234Z,33.15
2018-08-17T13:55:34.419Z,33.72
2018-08-17T13:58:04.708Z,33.02
2018-08-17T14:00:34.918Z,32.79
2018-08-17T14:03:05.057Z,33.22
2018-08-17T14:05:35.207Z,32.24
2018-08-17T14:08:05.385Z,33.57
2018-08-17T14:10:36.118Z,33.36
2018-08-17T14:13:06.862Z,32.76
2018-08-17T14:15:37.031Z,32.33
2018-08-17T14:18:08.328Z,31.43
2018-08-17T14:20:38.457Z,30.86
2018-08-17T14:23:08.624Z,30.98
2018-08-17T14:25:39.873Z,30.82
2018-08-17T14:28:10.099Z,31.50
2018-08-17T14:30:40.224Z,31.10
2018-08-17T14:33:10.334Z,31.37
2018-08-17T14:35:40.481Z,29.99
2018-08-17T14:38:10.597Z,30.69
2018-08-17T14:40:40.697Z,31.99
2018-08-17T14:43:10.845Z,32.12
2018-08-17T14:45:42.065Z,32.15
2018-08-17T14:48:12.253Z,32.24
2018-08-17T14:50:42.993Z,33.33
2018-08-17T14:53:13.156Z,34.84
2018-08-17T14:55:43.411Z,37.51
2018-08-17T14:58:13.910Z,42.81
2018-08-17T15:00:44.418Z,48.84
2018-08-17T15:03:15.169Z,57.16
2018-08-17T15:05:45.994Z,63.59
2018-08-17T15:08:16.417Z,67.36
2018-08-17T15:10:47.144Z,71.12
2018-08-17T15:13:17.577Z,74.40
2018-08-17T15:15:48.156Z,80.67
2018-08-17T15:18:18.865Z,82.28
2018-08-17T15:20:48.835Z,80.05
2018-08-17T15:23:18.691Z,82.76
2018-08-17T15:25:49.201Z,83.47
2018-08-17T15:28:19.079Z,83.98
2018-08-17T15:30:49.041Z,83.31
2018-08-17T15:33:19.591Z,83.16
2018-08-17T15:35:50.085Z,83.50
2018-08-17T15:41:56.066Z,82.84
2018-08-17T15:44:27.037Z,82.46
2018-08-17T15:46:58.173Z,79.73
2018-08-17T15:49:33.175Z,79.05
2018-08-17T15:52:04.774Z,80.96
2018-08-17T15:54:35.582Z,81.53
2018-08-17T15:57:05.862Z,83.07
2018-08-17T15:59:35.685Z,82.10
2018-08-17T16:02:06.107Z,80.03
2018-08-17T16:04:36.501Z,79.37
2018-08-17T16:07:06.646Z,81.76
2018-08-17T16:09:37.518Z,81.41
2018-08-17T16:12:08.003Z,80.69
2018-08-17T16:14:38.448Z,80.00
2018-08-17T16:17:09.144Z,79.57
2018-08-17T16:19:39.583Z,79.70
2018-08-17T16:22:10.041Z,81.64
2018-08-17T16:24:40.648Z,80.78
2018-08-17T16:27:46.207Z,81.25
2018-08-17T16:30:16.693Z,82.27
2018-08-17T16:32:47.217Z,82.19
2018-08-17T16:35:17.893Z,82.64
2018-08-17T16:37:49.267Z,82.31
2018-08-17T16:40:20.125Z,82.60
2018-08-17T16:42:52.311Z,82.01
2018-08-17T16:45:22.798Z,80.88
2018-08-17T16:47:53.410Z,80.62
2018-08-17T16:50:24.020Z,80.37
2018-08-17T16:52:54.472Z,79.74
2018-08-17T16:55:25.082Z,78.92
2018-08-17T16:57:55.559Z,77.27
2018-08-17T17:00:26.902Z,78.88
2018-08-17T17:02:58.026Z,78.77
2018-08-17T17:05:28.422Z,79.00
2018-08-17T17:07:58.863Z,79.86
2018-08-17T17:10:31.572Z,79.39
2018-08-17T17:13:01.966Z,79.69
2018-08-17T17:15:32.454Z,78.82
2018-08-17T17:18:08.633Z,79.93
2018-08-17T17:20:40.388Z,81.03
2018-08-17T17:23:12.004Z,81.30
2018-08-17T17:25:42.784Z,81.11
2018-08-17T17:28:14.168Z,81.21
2018-08-17T17:30:49.389Z,80.35
2018-08-17T17:33:20.464Z,81.86
2018-08-17T17:35:51.491Z,82.19
2018-08-17T17:38:21.350Z,81.49
2018-08-17T17:40:51.787Z,82.04
2018-08-17T17:43:21.922Z,82.41
2018-08-17T17:45:51.827Z,82.46
2018-08-17T17:48:21.703Z,82.25
2018-08-17T17:50:51.578Z,82.31
2018-08-17T17:53:21.397Z,81.88
2018-08-17T17:55:51.677Z,81.54
2018-08-17T17:58:22.092Z,81.16
2018-08-17T18:01:00.886Z,82.43
2018-08-17T18:03:31.876Z,81.55
2018-08-17T18:06:08.996Z,81.78
2018-08-17T18:08:38.759Z,81.88
2018-08-17T18:11:09.654Z,81.16
2018-08-17T18:13:40.108Z,81.68
2018-08-17T18:16:10.003Z,82.09
2018-08-17T18:18:40.223Z,82.17
2018-08-17T18:21:10.158Z,81.11
2018-08-17T18:23:40.069Z,81.73
2018-08-17T18:26:17.723Z,80.66
2018-08-17T18:28:47.842Z,81.03
2018-08-17T18:31:17.946Z,82.61
2018-08-17T18:33:47.842Z,82.75
2018-08-17T18:36:17.649Z,83.30
2018-08-17T18:38:47.824Z,82.16
2018-08-17T18:41:17.726Z,82.41
2018-08-17T18:43:47.905Z,83.40
2018-08-17T18:46:18.217Z,83.91
2018-08-17T18:48:48.294Z,83.64
2018-08-17T18:51:18.370Z,84.46
2018-08-17T18:53:48.262Z,85.05
2018-08-17T18:56:18.036Z,84.82
2018-08-17T18:58:48.699Z,85.53
2018-08-17T19:01:18.853Z,85.12
2018-08-17T19:03:48.740Z,84.90
2018-08-17T19:06:18.535Z,85.12
2018-08-17T19:08:48.727Z,85.10
2018-08-17T19:11:18.772Z,84.63
2018-08-17T19:15:17.978Z,84.76
2018-08-17T19:17:47.806Z,85.21
2018-08-17T19:20:17.891Z,85.37
2018-08-17T19:22:47.751Z,84.94
2018-08-17T19:25:17.593Z,84.25
2018-08-17T19:27:47.511Z,83.74
2018-08-17T19:30:25.719Z,83.98
2018-08-17T19:32:58.144Z,83.70
2018-08-17T19:35:28.009Z,83.55
2018-08-17T19:37:57.871Z,83.19
2018-08-17T19:40:27.711Z,82.88
2018-08-17T19:42:57.583Z,82.92
2018-08-17T19:45:27.447Z,82.21
2018-08-17T19:47:57.305Z,82.75
2018-08-17T19:50:27.117Z,84.16
2018-08-17T19:52:57.429Z,84.68
2018-08-17T19:56:56.751Z,84.41
2018-08-17T19:59:26.963Z,85.50
2018-08-17T20:01:56.991Z,85.28
2018-08-17T20:04:26.855Z,85.82
2018-08-17T20:06:56.647Z,85.84
2018-08-17T20:09:26.613Z,86.17
2018-08-17T20:11:56.553Z,87.00
2018-08-17T20:14:27.357Z,86.68
2018-08-17T20:16:57.145Z,87.05
2018-08-17T20:19:35.765Z,87.52
2018-08-17T20:22:10.301Z,87.12
2018-08-17T20:24:40.175Z,87.20
2018-08-17T20:27:09.979Z,86.59
2018-08-17T20:29:39.883Z,86.36
2018-08-17T20:32:10.418Z,85.20
2018-08-17T20:34:46.196Z,84.15
2018-08-17T20:37:17.767Z,84.11
2018-08-17T20:39:48.169Z,84.52
2018-08-17T20:42:18.937Z,83.70
2018-08-17T20:44:48.901Z,83.53
2018-08-17T20:47:18.717Z,83.61
2018-08-17T20:49:48.515Z,83.68
2018-08-17T20:52:18.509Z,83.77
2018-08-17T20:54:49.335Z,83.56
2018-08-17T20:57:19.411Z,83.21
2018-08-17T20:59:50.029Z,83.29
2018-08-17T21:02:20.223Z,83.01
2018-08-17T21:04:50.145Z,83.29
2018-08-17T21:07:19.965Z,83.32
2018-08-17T21:09:50.491Z,83.12
2018-08-17T21:12:21.027Z,83.19
2018-08-17T21:14:51.649Z,84.23
2018-08-17T21:17:21.987Z,84.83
2018-08-17T21:19:51.820Z,85.23
2018-08-17T21:22:21.678Z,84.41
2018-08-17T21:24:51.654Z,84.31
2018-08-17T21:27:21.489Z,84.93
2018-08-17T21:29:51.264Z,84.87
2018-08-17T21:32:22.545Z,84.74
2018-08-17T21:34:52.988Z,83.83
2018-08-17T21:37:25.695Z,83.49
2018-08-17T21:39:55.541Z,83.86
2018-08-17T21:42:25.353Z,83.86
2018-08-17T21:44:55.840Z,83.95
2018-08-17T21:47:25.981Z,83.70
2018-08-17T21:50:16.856Z,83.88
2018-08-17T21:52:47.209Z,83.86
2018-08-17T21:55:17.759Z,83.38
2018-08-17T21:57:48.145Z,83.38
2018-08-17T22:00:26.912Z,83.35
2018-08-17T22:02:57.591Z,83.12
2018-08-17T22:05:29.423Z,83.04
2018-08-17T22:08:00.383Z,83.07
2018-08-17T22:10:31.204Z,82.13
2018-08-17T22:13:01.029Z,82.49
2018-08-17T22:15:31.933Z,82.57
2018-08-17T22:18:02.455Z,81.80
2018-08-17T22:20:32.321Z,81.74
2018-08-17T22:23:02.342Z,81.72
2018-08-17T22:25:32.585Z,82.34
2018-08-17T22:28:02.735Z,82.41
2018-08-17T22:30:33.532Z,82.72
2018-08-17T22:33:03.941Z,82.99
2018-08-17T22:35:33.883Z,82.96
2018-08-17T22:38:03.780Z,83.60
2018-08-17T22:40:33.762Z,84.61
2018-08-17T22:43:03.644Z,84.73
2018-08-17T22:45:33.463Z,84.88
2018-08-17T22:48:03.582Z,84.82
2018-08-17T22:50:33.586Z,84.83
2018-08-17T22:53:03.931Z,84.49
2018-08-17T22:55:33.820Z,84.34
2018-08-17T22:58:03.622Z,85.50
2018-08-17T23:00:33.773Z,86.00
2018-08-17T23:03:03.641Z,86.37
2018-08-17T23:05:37.664Z,85.83
2018-08-17T23:08:07.617Z,86.51
2018-08-17T23:10:37.860Z,86.33
2018-08-17T23:13:07.968Z,86.14
2018-08-17T23:15:37.873Z,86.00
2018-08-17T23:18:08.582Z,85.89
2018-08-17T23:20:39.007Z,85.69
2018-08-17T23:23:09.342Z,86.34
2018-08-17T23:25:39.281Z,86.18
2018-08-17T23:28:09.206Z,85.54
2018-08-17T23:30:39.208Z,85.75
2018-08-17T23:33:10.339Z,85.22
2018-08-17T23:35:40.205Z,84.82
2018-08-17T23:38:10.314Z,84.17
2018-08-17T23:40:40.314Z,84.10
2018-08-17T23:43:10.173Z,84.89
2018-08-17T23:45:40.674Z,84.64
2018-08-17T23:48:10.534Z,84.50
2018-08-17T23:50:40.389Z,84.19
2018-08-17T23:53:11.892Z,83.59
2018-08-17T23:55:41.844Z,84.16
2018-08-17T23:58:11.732Z,84.32
